Time,TemperatureF,DewpointF,PressureIn,WindDirection,WindDirectionDegrees,WindSpeedMPH,WindSpeedGustMPH,Humidity,HourlyPrecipIn,Conditions,Clouds,dailyrainin,SoftwareType,DateUTC
2014-01-26 00:01:00,18.2,16.0,29.46,NNE,18,3.0,12.0,89,0.00,,,0.00,weatherlink.com 1.10,2014-01-26 05:01:00,
2014-01-26 00:17:00,18.8,14.0,29.48,SSW,213,0.0,6.0,82,0.00,,,0.00,weatherlink.com 1.10,2014-01-26 05:17:00,
2014-01-26 00:32:00,18.5,12.0,29.49,SSW,210,1.0,7.0,76,0.00,,,0.00,weatherlink.com 1.10,2014-01-26 05:32:00,
2014-01-26 00:47:00,17.9,10.0,29.50,SW,225,5.0,9.0,72,0.00,,,0.00,weatherlink.com 1.10,2014-01-26 05:47:00,
2014-01-26 01:02:00,17.5,10.0,29.52,WSW,240,1.0,8.0,73,0.00,,,0.00,weatherlink.com 1.10,2014-01-26 06:02:00,
2014-01-26 01:17:00,16.8,10.0,29.52,ENE,59,0.0,7.0,73,0.00,,,0.00,weatherlink.com 1.10,2014-01-26 06:17:00,
2014-01-26 01:32:00,16.1,9.0,29.54,ENE,69,0.0,0.0,72,0.00,,,0.00,weatherlink.com 1.10,2014-01-26 06:32:00,
2014-01-26 01:47:00,16.2,10.0,29.56,NNE,15,2.0,5.0,75,0.00,,,0.00,weatherlink.com 1.10,2014-01-26 06:47:00,
2014-01-26 02:02:00,15.4,10.0,29.57,SSW,207,3.0,7.0,79,0.00,,,0.00,weatherlink.com 1.10,2014-01-26 07:02:00,
2014-01-26 02:17:00,14.7,7.0,29.58,South,182,0.0,10.0,70,0.00,,,0.00,weatherlink.com 1.10,2014-01-26 07:17:00,
2014-01-26 02:32:00,14.2,5.0,29.59,WSW,247,3.0,5.0,68,0.00,,,0.00,weatherlink.com 1.10,2014-01-26 07:32:00,
2014-01-26 02:47:00,13.9,2.0,29.61,SW,236,1.0,11.0,59,0.00,,,0.00,weatherlink.com 1.10,2014-01-26 07:47:00,
2014-01-26 03:02:00,13.4,2.0,29.61,NNW,331,2.0,8.0,60,0.00,,,0.00,weatherlink.com 1.10,2014-01-26 08:02:00,
2014-01-26 03:17:00,13.0,2.0,29.63,SSE,166,2.0,7.0,61,0.00,,,0.00,weatherlink.com 1.10,2014-01-26 08:17:00,
2014-01-26 03:32:00,12.6,1.0,29.64,West,281,0.0,12.0,61,0.00,,,0.00,weatherlink.com 1.10,2014-01-26 08:32:00,
2014-01-26 03:47:00,12.4,1.0,29.65,SSE,161,1.0,10.0,61,0.00,,,0.00,weatherlink.com 1.10,2014-01-26 08:47:00,
2014-01-26 04:02:00,11.8,1.0,29.66,SW,226,0.0,5.0,63,0.00,,,0.00,weatherlink.com 1.10,2014-01-26 09:02:00,
2014-01-26 04:32:00,11.3,1.0,29.68,SSW,199,1.0,6.0,63,0.00,,,0.00,weatherlink.com 1.10,2014-01-26 09:32:00,
2014-01-26 04:48:00,10.9,1.0,29.69,SSW,192,0.0,4.0,65,0.00,,,0.00,weatherlink.com 1.10,2014-01-26 09:48:00,
2014-01-26 05:03:00,10.8,1.0,29.70,NNE,33,6.0,10.0,64,0.00,,,0.00,weatherlink.com 1.10,2014-01-26 10:03:00,
2014-01-26 05:18:00,10.7,1.0,29.70,East,87,0.0,2.0,65,0.00,,,0.00,weatherlink.com 1.10,2014-01-26 10:18:00,
2014-01-26 05:33:00,10.7,1.0,29.71,South,190,1.0,4.0,66,0.00,,,0.00,weatherlink.com 1.10,2014-01-26 10:33:00,
2014-01-26 05:48:00,10.6,1.0,29.72,SSW,206,6.0,8.0,66,0.00,,,0.00,weatherlink.com 1.10,2014-01-26 10:48:00,
2014-01-26 06:03:00,10.5,2.0,29.72,SW,234,0.0,5.0,67,0.00,,,0.00,weatherlink.com 1.10,2014-01-26 11:03:00,
2014-01-26 06:18:00,10.3,1.0,29.73,East,80,0.0,3.0,67,0.00,,,0.00,weatherlink.com 1.10,2014-01-26 11:18:00,
2014-01-26 06:33:00,10.0,1.0,29.73,East,92,2.0,3.0,68,0.00,,,0.00,weatherlink.com 1.10,2014-01-26 11:33:00,
2014-01-26 06:48:00,9.9,1.0,29.74,WSW,244,0.0,3.0,67,0.00,,,0.00,weatherlink.com 1.10,2014-01-26 11:48:00,
2014-01-26 07:03:00,9.5,1.0,29.76,WSW,252,0.0,5.0,68,0.00,,,0.00,weatherlink.com 1.10,2014-01-26 12:03:00,
2014-01-26 07:18:00,9.5,2.0,29.77,WSW,254,0.0,1.0,70,0.00,,,0.00,weatherlink.com 1.10,2014-01-26 12:18:00,
2014-01-26 07:33:00,9.4,2.0,29.77,NNE,15,1.0,3.0,73,0.00,,,0.00,weatherlink.com 1.10,2014-01-26 12:33:00,
2014-01-26 07:48:00,9.1,3.0,29.79,WNW,300,0.0,5.0,77,0.00,,,0.00,weatherlink.com 1.10,2014-01-26 12:48:00,
2014-01-26 08:03:00,8.7,3.0,29.80,NE,43,1.0,4.0,78,0.00,,,0.00,weatherlink.com 1.10,2014-01-26 13:03:00,
2014-01-26 08:18:00,8.6,3.0,29.80,NNE,28,0.0,6.0,78,0.00,,,0.00,weatherlink.com 1.10,2014-01-26 13:18:00,
2014-01-26 08:33:00,9.2,3.0,29.81,NNE,19,2.0,5.0,76,0.00,,,0.00,weatherlink.com 1.10,2014-01-26 13:33:00,
2014-01-26 08:48:00,9.7,3.0,29.82,North,355,0.0,4.0,75,0.00,,,0.00,weatherlink.com 1.10,2014-01-26 13:48:00,
2014-01-26 09:03:00,10.4,4.0,29.83,ENE,65,1.0,4.0,74,0.00,,,0.00,weatherlink.com 1.10,2014-01-26 14:03:00,
2014-01-26 09:18:00,10.9,4.0,29.84,ENE,58,1.0,6.0,72,0.00,,,0.00,weatherlink.com 1.10,2014-01-26 14:18:00,
2014-01-26 09:33:00,11.9,2.0,29.85,SW,226,3.0,5.0,65,0.00,,,0.00,weatherlink.com 1.10,2014-01-26 14:33:00,
2014-01-26 09:48:00,12.2,0.0,29.85,WSW,244,1.0,7.0,58,0.00,,,0.00,weatherlink.com 1.10,2014-01-26 14:48:00,
2014-01-26 10:03:00,12.9,1.0,29.84,SW,215,1.0,3.0,58,0.00,,,0.00,weatherlink.com 1.10,2014-01-26 15:03:00,
2014-01-26 10:18:00,13.5,0.0,29.84,NE,48,1.0,6.0,54,0.00,,,0.00,weatherlink.com 1.10,2014-01-26 15:18:00,
2014-01-26 10:33:00,15.3,2.0,29.85,SSW,213,2.0,3.0,56,0.00,,,0.00,weatherlink.com 1.10,2014-01-26 15:33:00,
2014-01-26 10:49:00,15.2,-2.0,29.85,SW,217,4.0,10.0,47,0.00,,,0.00,weatherlink.com 1.10,2014-01-26 15:49:00,
2014-01-26 11:04:00,16.0,1.0,29.86,WSW,239,4.0,11.0,51,0.00,,,0.00,weatherlink.com 1.10,2014-01-26 16:04:00,
2014-01-26 11:19:00,16.1,0.0,29.85,SSW,203,0.0,8.0,50,0.00,,,0.00,weatherlink.com 1.10,2014-01-26 16:19:00,
2014-01-26 11:34:00,16.7,0.0,29.84,West,274,3.0,7.0,47,0.00,,,0.00,weatherlink.com 1.10,2014-01-26 16:34:00,
2014-01-26 11:49:00,16.7,0.0,29.84,SW,219,4.0,10.0,48,0.00,,,0.00,weatherlink.com 1.10,2014-01-26 16:49:00,
2014-01-26 12:04:00,16.7,-2.0,29.83,SSW,211,1.0,7.0,44,0.00,,,0.00,weatherlink.com 1.10,2014-01-26 17:04:00,
2014-01-26 12:19:00,17.6,-1.0,29.81,SSW,202,1.0,7.0,45,0.00,,,0.00,weatherlink.com 1.10,2014-01-26 17:19:00,
2014-01-26 12:34:00,18.3,2.0,29.81,WSW,237,1.0,6.0,50,0.00,,,0.00,weatherlink.com 1.10,2014-01-26 17:34:00,
2014-01-26 12:49:00,18.2,1.0,29.81,SSW,201,2.0,8.0,46,0.00,,,0.00,weatherlink.com 1.10,2014-01-26 17:49:00,
2014-01-26 13:04:00,19.0,1.0,29.81,SSW,209,3.0,8.0,46,0.00,,,0.00,weatherlink.com 1.10,2014-01-26 18:04:00,
2014-01-26 13:19:00,18.0,-2.0,29.80,SW,228,0.0,5.0,42,0.00,,,0.00,weatherlink.com 1.10,2014-01-26 18:19:00,
2014-01-26 13:34:00,17.4,-1.0,29.80,SW,218,4.0,8.0,45,0.00,,,0.00,weatherlink.com 1.10,2014-01-26 18:34:00,
2014-01-26 13:49:00,17.5,0.0,29.79,WSW,246,2.0,4.0,46,0.00,,,0.00,weatherlink.com 1.10,2014-01-26 18:49:00,
2014-01-26 14:05:00,18.2,2.0,29.80,SW,215,1.0,4.0,49,0.00,,,0.00,weatherlink.com 1.10,2014-01-26 19:05:00,
2014-01-26 14:20:00,18.4,2.0,29.80,West,263,0.0,4.0,48,0.00,,,0.00,weatherlink.com 1.10,2014-01-26 19:20:00,
2014-01-26 14:35:00,18.2,1.0,29.79,SSW,203,3.0,7.0,48,0.00,,,0.00,weatherlink.com 1.10,2014-01-26 19:35:00,
2014-01-26 14:50:00,18.4,2.0,29.80,SSW,204,0.0,2.0,48,0.00,,,0.00,weatherlink.com 1.10,2014-01-26 19:50:00,
2014-01-26 15:05:00,18.6,2.0,29.80,SE,132,0.0,4.0,48,0.00,,,0.00,weatherlink.com 1.10,2014-01-26 20:05:00,
2014-01-26 15:20:00,18.5,1.0,29.80,ESE,115,0.0,4.0,47,0.00,,,0.00,weatherlink.com 1.10,2014-01-26 20:20:00,
2014-01-26 15:35:00,18.8,3.0,29.80,SE,138,0.0,2.0,51,0.00,,,0.00,weatherlink.com 1.10,2014-01-26 20:35:00,
2014-01-26 15:50:00,18.4,3.0,29.80,SSW,194,0.0,6.0,50,0.00,,,0.00,weatherlink.com 1.10,2014-01-26 20:50:00,
2014-01-26 16:05:00,18.3,3.0,29.80,SSE,148,0.0,2.0,51,0.00,,,0.00,weatherlink.com 1.10,2014-01-26 21:05:00,
2014-01-26 16:20:00,18.3,3.0,29.80,SSE,148,1.0,3.0,52,0.00,,,0.00,weatherlink.com 1.10,2014-01-26 21:20:00,
2014-01-26 16:35:00,18.3,2.0,29.80,South,173,3.0,7.0,50,0.00,,,0.00,weatherlink.com 1.10,2014-01-26 21:35:00,
2014-01-26 16:50:00,18.0,3.0,29.80,South,176,1.0,6.0,52,0.00,,,0.00,weatherlink.com 1.10,2014-01-26 21:50:00,
2014-01-26 17:05:00,17.7,3.0,29.80,South,183,2.0,6.0,52,0.00,,,0.00,weatherlink.com 1.10,2014-01-26 22:05:00,
2014-01-26 17:20:00,17.4,4.0,29.79,SE,146,1.0,8.0,55,0.00,,,0.00,weatherlink.com 1.10,2014-01-26 22:20:00,
2014-01-26 17:36:00,17.1,4.0,29.80,South,180,2.0,8.0,57,0.00,,,0.00,weatherlink.com 1.10,2014-01-26 22:36:00,
2014-01-26 18:06:00,16.6,6.0,29.81,South,169,1.0,6.0,64,0.00,,,0.00,weatherlink.com 1.10,2014-01-26 23:06:00,
2014-01-26 18:21:00,16.6,7.0,29.81,South,173,1.0,6.0,65,0.00,,,0.00,weatherlink.com 1.10,2014-01-26 23:21:00,
2014-01-26 18:36:00,16.6,7.0,29.79,SE,144,3.0,5.0,67,0.00,,,0.00,weatherlink.com 1.10,2014-01-26 23:36:00,
2014-01-26 18:51:00,16.6,8.0,29.79,SE,138,2.0,6.0,69,0.00,,,0.00,weatherlink.com 1.10,2014-01-26 23:51:00,
2014-01-26 19:06:00,16.5,9.0,29.79,SSW,199,3.0,7.0,71,0.00,,,0.00,weatherlink.com 1.10,2014-01-27 00:06:00,
2014-01-26 19:21:00,16.4,9.0,29.79,South,177,2.0,12.0,74,0.00,,,0.00,weatherlink.com 1.10,2014-01-27 00:21:00,
2014-01-26 19:36:00,16.4,10.0,29.80,SE,138,3.0,10.0,75,0.00,,,0.00,weatherlink.com 1.10,2014-01-27 00:36:00,
2014-01-26 19:51:00,16.5,10.0,29.79,SSE,149,5.0,7.0,75,0.00,,,0.00,weatherlink.com 1.10,2014-01-27 00:51:00,
2014-01-26 20:06:00,16.5,10.0,29.79,SSE,159,0.0,11.0,76,0.00,,,0.00,weatherlink.com 1.10,2014-01-27 01:06:00,
2014-01-26 20:21:00,16.5,10.0,29.79,East,80,1.0,13.0,76,0.00,,,0.00,weatherlink.com 1.10,2014-01-27 01:21:00,
2014-01-26 20:36:00,16.6,10.0,29.78,West,268,0.0,20.0,76,0.00,,,0.00,weatherlink.com 1.10,2014-01-27 01:36:00,
2014-01-26 20:52:00,16.7,10.0,29.78,South,174,3.0,12.0,75,0.00,,,0.00,weatherlink.com 1.10,2014-01-27 01:52:00,
2014-01-26 21:07:00,16.8,10.0,29.78,ESE,121,2.0,10.0,75,0.00,,,0.00,weatherlink.com 1.10,2014-01-27 02:07:00,
2014-01-26 21:22:00,17.0,10.0,29.77,South,172,3.0,10.0,75,0.00,,,0.00,weatherlink.com 1.10,2014-01-27 02:22:00,
2014-01-26 21:37:00,17.2,10.0,29.78,ESE,122,2.0,16.0,74,0.00,,,0.00,weatherlink.com 1.10,2014-01-27 02:37:00,
2014-01-26 21:52:00,17.7,11.0,29.77,ESE,104,2.0,9.0,74,0.00,,,0.00,weatherlink.com 1.10,2014-01-27 02:52:00,
2014-01-26 22:07:00,18.0,11.0,29.78,South,174,0.0,8.0,73,0.00,,,0.00,weatherlink.com 1.10,2014-01-27 03:07:00,
2014-01-26 22:22:00,18.4,11.0,29.78,SE,142,0.0,6.0,73,0.00,,,0.00,weatherlink.com 1.10,2014-01-27 03:22:00,
2014-01-26 22:37:00,18.8,12.0,29.78,ESE,109,0.0,4.0,73,0.00,,,0.00,weatherlink.com 1.10,2014-01-27 03:37:00,
2014-01-26 22:52:00,19.2,12.0,29.78,ESE,111,1.0,3.0,72,0.00,,,0.00,weatherlink.com 1.10,2014-01-27 03:52:00,
2014-01-26 23:07:00,19.8,12.0,29.78,East,80,1.0,5.0,72,0.00,,,0.00,weatherlink.com 1.10,2014-01-27 04:07:00,
2014-01-26 23:22:00,20.2,12.0,29.77,ESE,114,0.0,7.0,71,0.00,,,0.00,weatherlink.com 1.10,2014-01-27 04:22:00,
2014-01-26 23:37:00,20.3,12.0,29.77,SE,130,0.0,8.0,71,0.00,,,0.00,weatherlink.com 1.10,2014-01-27 04:37:00,
2014-01-26 23:52:00,20.5,13.0,29.76,East,100,0.0,4.0,72,0.00,,,0.00,weatherlink.com 1.10,2014-01-27 04:52:00,